createdAt,value
2019-01-24T00:02:01.680Z,0.60
2019-01-24T00:05:06.256Z,0.10
2019-01-24T00:08:09.886Z,0.50
2019-01-24T00:11:13.106Z,0.10
2019-01-24T00:14:16.035Z,0.30
2019-01-24T00:17:19.030Z,0.10
2019-01-24T00:20:22.253Z,0.10
2019-01-24T00:23:25.438Z,0.10
2019-01-24T00:26:28.691Z,0.10
2019-01-24T00:29:32.246Z,0.10
2019-01-24T00:32:35.562Z,0.40
2019-01-24T00:35:38.482Z,0.10
2019-01-24T00:38:43.192Z,0.10
2019-01-24T00:41:46.466Z,0.10
2019-01-24T00:44:49.362Z,0.00
2019-01-24T00:47:52.284Z,-0.10
2019-01-24T00:50:55.544Z,0.00
2019-01-24T00:53:58.487Z,-0.10
2019-01-24T00:57:01.405Z,-0.10
2019-01-24T01:00:10.070Z,-0.10
2019-01-24T01:03:13.423Z,-0.10
2019-01-24T01:06:17.181Z,0.00
2019-01-24T01:09:20.464Z,0.00
2019-01-24T01:12:23.846Z,0.00
2019-01-24T01:15:27.062Z,0.00
2019-01-24T01:18:30.651Z,0.10
2019-01-24T01:21:33.542Z,-0.20
2019-01-24T01:24:36.561Z,-0.10
2019-01-24T01:27:39.570Z,0.00
2019-01-24T01:30:42.822Z,0.10
2019-01-24T01:33:45.738Z,-0.10
2019-01-24T01:36:49.041Z,0.00
2019-01-24T01:39:52.362Z,0.00
2019-01-24T01:42:55.639Z,0.00
2019-01-24T01:45:58.556Z,0.10
2019-01-24T01:49:01.816Z,0.10
2019-01-24T01:52:04.732Z,0.00
2019-01-24T01:55:08.028Z,0.10
2019-01-24T01:58:10.931Z,0.10
2019-01-24T02:01:13.871Z,0.10
2019-01-24T02:04:17.390Z,0.10
2019-01-24T02:07:20.694Z,0.10
2019-01-24T02:10:23.843Z,0.10
2019-01-24T02:13:26.759Z,0.00
2019-01-24T02:16:29.667Z,0.40
2019-01-24T02:19:33.152Z,0.20
2019-01-24T02:22:37.565Z,0.40
2019-01-24T02:25:40.524Z,0.10
2019-01-24T02:28:43.819Z,0.00
2019-01-24T02:31:47.079Z,0.00
2019-01-24T02:34:50.491Z,-0.10
2019-01-24T02:37:53.750Z,-0.20
2019-01-24T02:40:57.024Z,0.30
2019-01-24T02:43:59.945Z,-0.30
2019-01-24T02:47:03.338Z,0.20
2019-01-24T02:50:09.805Z,-0.20
2019-01-24T02:53:12.704Z,-0.20
2019-01-24T02:56:15.639Z,-0.20
2019-01-24T02:59:18.551Z,-0.10
2019-01-24T03:02:21.750Z,-0.10
2019-01-24T03:05:24.668Z,-0.10
2019-01-24T03:08:27.589Z,-0.10
2019-01-24T03:11:30.817Z,0.00
2019-01-24T03:14:34.471Z,-0.20
2019-01-24T03:17:37.719Z,-0.20
2019-01-24T03:20:40.638Z,-0.20
2019-01-24T03:23:44.110Z,-0.20
2019-01-24T03:26:47.026Z,-0.10
2019-01-24T03:29:49.947Z,-0.20
2019-01-24T03:32:53.484Z,0.50
2019-01-24T03:35:56.720Z,-0.20
2019-01-24T03:38:59.635Z,-0.20
2019-01-24T03:42:02.547Z,-0.10
2019-01-24T03:45:09.269Z,-0.10
2019-01-24T03:48:12.185Z,-0.20
2019-01-24T03:51:15.515Z,-0.20
2019-01-24T03:54:18.758Z,-0.40
2019-01-24T03:57:21.670Z,-0.30
2019-01-24T04:00:25.039Z,-0.30
2019-01-24T04:03:28.367Z,-0.30
2019-01-24T04:06:31.560Z,-0.20
2019-01-24T04:09:34.772Z,-0.20
2019-01-24T04:12:37.998Z,0.40
2019-01-24T04:15:40.911Z,-0.20
2019-01-24T04:18:44.180Z,-0.20
2019-01-24T04:21:47.407Z,-0.10
2019-01-24T04:24:50.317Z,-0.30
2019-01-24T04:27:53.932Z,-0.30
2019-01-24T04:30:56.864Z,-0.30
2019-01-24T04:34:00.046Z,-0.30
2019-01-24T04:37:03.144Z,-0.20
2019-01-24T04:40:09.780Z,-0.20
2019-01-24T04:43:12.727Z,0.20
2019-01-24T04:46:16.016Z,-0.30
2019-01-24T04:49:19.279Z,-0.30
2019-01-24T04:52:22.863Z,-0.50
2019-01-24T04:55:27.666Z,-0.70
2019-01-24T04:58:30.862Z,-0.50
2019-01-24T05:01:33.862Z,-0.40
2019-01-24T05:04:36.784Z,-0.30
2019-01-24T05:07:40.057Z,-0.30
2019-01-24T05:10:43.403Z,-0.30
2019-01-24T05:13:46.301Z,0.10
2019-01-24T05:16:49.608Z,-0.30
2019-01-24T05:19:53.518Z,-0.40
2019-01-24T05:22:56.770Z,-0.30
2019-01-24T05:26:00.782Z,-0.30
2019-01-24T05:29:04.131Z,0.20
2019-01-24T05:32:07.064Z,-0.30
2019-01-24T05:35:10.328Z,-0.30
2019-01-24T05:38:13.242Z,-0.30
2019-01-24T05:41:16.492Z,-0.30
2019-01-24T05:44:19.710Z,-0.30
2019-01-24T05:47:22.928Z,-0.30
2019-01-24T05:50:26.181Z,-0.30
2019-01-24T05:53:29.487Z,-0.30
2019-01-24T05:56:32.687Z,-0.30
2019-01-24T05:59:35.926Z,-0.20
2019-01-24T06:02:39.585Z,-0.10
2019-01-24T06:05:42.906Z,-0.30
2019-01-24T06:08:46.934Z,-0.40
2019-01-24T06:11:51.311Z,-0.40
2019-01-24T06:14:54.605Z,-0.40
2019-01-24T06:17:57.504Z,-0.50
2019-01-24T06:21:00.764Z,-0.60
2019-01-24T06:24:03.676Z,-0.50
2019-01-24T06:27:06.578Z,-0.40
2019-01-24T06:30:16.013Z,-0.40
2019-01-24T06:33:19.689Z,-0.50
2019-01-24T06:36:22.899Z,-0.60
2019-01-24T06:39:26.096Z,-0.60
2019-01-24T06:42:29.032Z,-0.80
2019-01-24T06:45:31.954Z,-0.70
2019-01-24T06:48:35.268Z,-0.60
2019-01-24T06:51:38.180Z,-0.60
2019-01-24T06:54:41.399Z,-0.50
2019-01-24T06:57:44.326Z,-0.40
2019-01-24T07:00:47.239Z,-0.40
2019-01-24T07:03:50.472Z,-0.50
2019-01-24T07:06:53.391Z,-0.40
2019-01-24T07:09:56.290Z,-0.40
2019-01-24T07:13:00.333Z,0.20
2019-01-24T07:16:03.347Z,-0.50
2019-01-24T07:19:06.254Z,-0.50
2019-01-24T07:22:09.515Z,-0.40
2019-01-24T07:25:19.003Z,0.70
2019-01-24T07:28:21.929Z,2.00
2019-01-24T07:31:24.855Z,0.90
2019-01-24T07:34:28.474Z,0.40
2019-01-24T07:37:31.457Z,0.30
2019-01-24T07:40:35.270Z,0.00
2019-01-24T07:43:38.212Z,-0.10
2019-01-24T07:46:41.486Z,-0.20
2019-01-24T07:49:45.071Z,-0.20
2019-01-24T07:52:48.268Z,-0.30
2019-01-24T07:55:51.215Z,-0.30
2019-01-24T07:58:54.151Z,-0.30
2019-01-24T08:01:57.055Z,0.20
2019-01-24T08:05:00.361Z,-0.30
2019-01-24T08:08:03.954Z,-0.40
2019-01-24T08:11:06.877Z,-0.40
2019-01-24T08:14:09.815Z,-0.50
2019-01-24T08:17:12.723Z,-0.60
2019-01-24T08:20:18.675Z,7.00
2019-01-24T08:23:21.912Z,8.00
2019-01-24T08:26:24.804Z,5.00
2019-01-24T08:29:28.431Z,3.00
2019-01-24T08:32:31.624Z,2.00
2019-01-24T08:35:34.959Z,0.30
2019-01-24T08:38:37.886Z,0.20
2019-01-24T08:41:40.795Z,0.20
2019-01-24T08:44:43.741Z,0.20
2019-01-24T08:47:48.311Z,0.20
2019-01-24T08:50:52.404Z,0.10
2019-01-24T08:53:55.926Z,0.20
2019-01-24T08:56:59.958Z,0.10
2019-01-24T09:00:05.185Z,0.50
2019-01-24T09:03:08.181Z,-0.10
2019-01-24T09:06:11.098Z,-0.10
2019-01-24T09:09:13.994Z,-0.10
2019-01-24T09:12:16.914Z,-0.20
2019-01-24T09:15:19.847Z,-0.20
2019-01-24T09:18:22.770Z,-0.20
2019-01-24T09:21:25.679Z,0.00
2019-01-24T09:24:28.602Z,-0.10
2019-01-24T09:27:31.910Z,0.00
2019-01-24T09:30:35.173Z,-0.10
2019-01-24T09:33:38.770Z,0.10
2019-01-24T09:36:42.038Z,0.00
2019-01-24T09:39:45.256Z,-0.10
2019-01-24T09:42:48.387Z,-0.20
2019-01-24T09:45:51.327Z,-0.20
2019-01-24T09:48:54.637Z,-0.30
2019-01-24T09:51:57.564Z,-0.20
2019-01-24T09:55:01.496Z,-0.40
2019-01-24T09:58:04.711Z,-0.30
2019-01-24T10:01:07.939Z,-0.20
2019-01-24T10:04:11.258Z,-0.10
2019-01-24T10:07:14.511Z,0.00
2019-01-24T10:10:22.195Z,0.10
2019-01-24T10:13:25.119Z,0.10
2019-01-24T10:16:28.390Z,0.10
2019-01-24T10:19:31.586Z,0.10
2019-01-24T10:22:34.496Z,0.10
2019-01-24T10:25:39.020Z,0.00
2019-01-24T10:28:42.291Z,0.00
2019-01-24T10:31:46.465Z,0.00
2019-01-24T10:34:49.911Z,0.00
2019-01-24T10:37:53.007Z,0.10
2019-01-24T10:40:55.936Z,0.50
2019-01-24T10:43:58.866Z,0.10
2019-01-24T10:47:01.803Z,0.10
2019-01-24T10:50:06.839Z,0.00
2019-01-24T10:53:10.075Z,0.10
2019-01-24T10:56:13.008Z,0.60
2019-01-24T10:59:16.260Z,0.20
2019-01-24T11:02:20.222Z,0.20
2019-01-24T11:05:23.151Z,0.30
2019-01-24T11:08:26.067Z,0.10
2019-01-24T11:11:29.389Z,0.10
2019-01-24T11:14:32.969Z,0.30
2019-01-24T11:17:36.362Z,0.40
2019-01-24T11:20:39.327Z,0.00
2019-01-24T11:23:42.926Z,0.00
2019-01-24T11:26:46.143Z,0.00
2019-01-24T11:29:49.038Z,0.00
2019-01-24T11:32:52.411Z,-0.10
2019-01-24T11:35:55.618Z,0.00
2019-01-24T11:38:58.526Z,0.00
2019-01-24T11:42:01.778Z,0.20
2019-01-24T11:45:07.115Z,0.00
2019-01-24T11:48:11.358Z,0.30
2019-01-24T11:51:14.275Z,0.00
2019-01-24T11:54:17.180Z,0.10
2019-01-24T11:57:20.112Z,-0.10
2019-01-24T12:00:35.022Z,-0.20
2019-01-24T12:03:37.944Z,-0.20
2019-01-24T12:06:41.219Z,-0.30
2019-01-24T12:09:44.771Z,-0.20
2019-01-24T12:12:48.134Z,-0.10
2019-01-24T12:15:51.032Z,-0.10
2019-01-24T12:18:54.642Z,-0.10
2019-01-24T12:21:57.832Z,-0.10
2019-01-24T12:25:00.750Z,-0.10
2019-01-24T12:28:04.578Z,-0.10
2019-01-24T12:31:07.480Z,0.00
2019-01-24T12:34:11.903Z,0.00
2019-01-24T12:37:14.801Z,0.00
2019-01-24T12:40:18.149Z,0.00
2019-01-24T12:43:21.078Z,0.00
2019-01-24T12:46:24.376Z,0.30
2019-01-24T12:49:27.321Z,0.00
2019-01-24T12:52:30.598Z,0.00
2019-01-24T12:55:33.507Z,0.00
2019-01-24T12:58:36.420Z,-0.20
2019-01-24T13:01:39.328Z,-0.10
2019-01-24T13:04:42.262Z,-0.10
2019-01-24T13:07:45.446Z,0.00
2019-01-24T13:10:48.363Z,0.00
2019-01-24T13:13:51.383Z,0.00
2019-01-24T13:16:54.294Z,0.00
2019-01-24T13:19:57.922Z,0.00
2019-01-24T13:23:00.823Z,0.00
2019-01-24T13:26:04.042Z,0.00
2019-01-24T13:29:07.295Z,0.00
2019-01-24T13:32:10.644Z,0.10
2019-01-24T13:35:13.671Z,0.00
2019-01-24T13:38:16.567Z,0.10
2019-01-24T13:41:19.897Z,0.10
2019-01-24T13:44:22.837Z,0.10
2019-01-24T13:47:25.752Z,0.30
2019-01-24T13:50:28.703Z,0.00
2019-01-24T13:53:31.902Z,0.00
2019-01-24T13:56:34.833Z,-0.20
2019-01-24T13:59:37.826Z,-0.20
2019-01-24T14:02:41.062Z,-0.20
2019-01-24T14:05:44.372Z,0.00
2019-01-24T14:08:47.630Z,0.00
2019-01-24T14:11:50.968Z,0.00
2019-01-24T14:14:54.263Z,0.00
2019-01-24T14:17:57.186Z,0.00
2019-01-24T14:21:00.136Z,0.00
2019-01-24T14:24:04.007Z,0.10
2019-01-24T14:27:06.990Z,0.00
2019-01-24T14:30:15.827Z,0.00
2019-01-24T14:33:19.477Z,0.00
2019-01-24T14:36:25.394Z,0.40
2019-01-24T14:39:27.554Z,0.00
2019-01-24T14:42:30.463Z,0.00
2019-01-24T14:45:33.378Z,0.00
2019-01-24T14:48:36.293Z,-0.10
2019-01-24T14:51:39.557Z,0.00
2019-01-24T14:54:42.487Z,0.00
2019-01-24T14:57:45.879Z,0.30
2019-01-24T15:00:58.126Z,0.00
2019-01-24T15:04:01.690Z,0.00
2019-01-24T15:07:04.923Z,0.00
2019-01-24T15:10:08.628Z,0.20
2019-01-24T15:13:11.929Z,0.00
2019-01-24T15:16:15.017Z,0.00
2019-01-24T15:19:17.940Z,0.50
2019-01-24T15:22:20.879Z,0.80
2019-01-24T15:25:24.503Z,0.30
2019-01-24T15:28:27.424Z,0.20
2019-01-24T15:31:30.715Z,0.10
2019-01-24T15:34:33.643Z,0.10
2019-01-24T15:37:37.661Z,0.10
2019-01-24T15:40:41.298Z,0.10
2019-01-24T15:43:44.218Z,0.10
2019-01-24T15:46:47.462Z,0.00
2019-01-24T15:49:50.672Z,0.00
2019-01-24T15:52:54.234Z,-0.10
2019-01-24T15:55:57.490Z,0.00
2019-01-24T15:59:00.426Z,0.00
2019-01-24T16:02:03.653Z,0.00
2019-01-24T16:05:08.794Z,0.00
2019-01-24T16:08:11.696Z,0.10
2019-01-24T16:11:14.726Z,0.10
2019-01-24T16:14:17.671Z,0.00
2019-01-24T16:17:20.947Z,0.00
2019-01-24T16:20:25.622Z,0.00
2019-01-24T16:23:28.874Z,-0.10
2019-01-24T16:26:31.899Z,-0.10
2019-01-24T16:29:35.546Z,-0.10
2019-01-24T16:32:39.806Z,0.10
2019-01-24T16:35:43.077Z,-0.20
2019-01-24T16:38:45.979Z,-0.30
2019-01-24T16:41:48.914Z,-0.20
2019-01-24T16:44:51.836Z,-0.30
2019-01-24T16:47:54.735Z,-0.20
2019-01-24T16:50:57.655Z,-0.30
2019-01-24T16:54:00.911Z,-0.30
2019-01-24T16:57:04.235Z,0.40
2019-01-24T17:00:18.643Z,0.90
2019-01-24T17:03:22.330Z,0.50
2019-01-24T17:06:25.343Z,0.30
2019-01-24T17:09:28.243Z,0.20
2019-01-24T17:12:31.166Z,0.10
2019-01-24T17:15:34.435Z,0.10
2019-01-24T17:18:37.827Z,0.00
2019-01-24T17:21:40.708Z,-0.20
2019-01-24T17:24:45.487Z,-0.10
2019-01-24T17:27:48.707Z,-0.10
2019-01-24T17:30:51.923Z,-0.20
2019-01-24T17:33:54.838Z,-0.20
2019-01-24T17:36:57.742Z,-0.30
2019-01-24T17:40:00.653Z,-0.30
2019-01-24T17:43:04.774Z,-0.30
2019-01-24T17:46:07.774Z,-0.20
2019-01-24T17:49:10.693Z,-0.20
2019-01-24T17:52:13.993Z,-0.30
2019-01-24T17:55:29.766Z,-0.20
2019-01-24T17:58:32.679Z,-0.10
2019-01-24T18:01:35.835Z,-0.20
2019-01-24T18:04:39.136Z,-0.20
2019-01-24T18:07:42.055Z,-0.10
2019-01-24T18:10:45.028Z,-0.10
2019-01-24T18:13:47.953Z,-0.10
2019-01-24T18:16:50.848Z,-0.20
2019-01-24T18:19:54.518Z,-0.30
2019-01-24T18:22:57.749Z,-0.30
2019-01-24T18:26:01.420Z,-0.30
2019-01-24T18:29:05.419Z,-0.20
2019-01-24T18:32:08.885Z,-0.20
2019-01-24T18:35:11.795Z,-0.30
2019-01-24T18:38:14.799Z,-0.30
2019-01-24T18:41:17.811Z,-0.20
2019-01-24T18:44:20.712Z,-0.20
2019-01-24T18:47:24.599Z,-0.30
2019-01-24T18:50:28.463Z,-0.20
2019-01-24T18:53:31.461Z,-0.30
2019-01-24T18:56:34.520Z,-0.20
2019-01-24T18:59:37.865Z,-0.20
2019-01-24T19:02:40.911Z,-0.20
2019-01-24T19:05:44.566Z,-0.30
2019-01-24T19:08:47.612Z,-0.30
2019-01-24T19:11:50.630Z,-0.30
2019-01-24T19:14:55.350Z,-0.20
2019-01-24T19:17:58.371Z,-0.20
2019-01-24T19:21:01.937Z,-0.10
2019-01-24T19:24:04.971Z,-0.30
2019-01-24T19:27:08.332Z,-0.30
2019-01-24T19:30:21.674Z,-0.30
2019-01-24T19:33:25.356Z,-0.30
2019-01-24T19:36:28.679Z,-0.20
2019-01-24T19:39:32.506Z,-0.20
2019-01-24T19:42:35.754Z,-0.20
2019-01-24T19:45:39.546Z,-0.30
2019-01-24T19:48:42.703Z,-0.40
2019-01-24T19:51:46.325Z,-0.30
2019-01-24T19:54:50.908Z,-0.20
2019-01-24T19:57:56.378Z,-0.30
2019-01-24T20:01:01.300Z,-0.30
2019-01-24T20:04:06.503Z,-0.40
2019-01-24T20:07:12.527Z,-0.50
2019-01-24T20:10:19.910Z,-0.40
2019-01-24T20:13:25.031Z,-0.40
2019-01-24T20:16:29.108Z,-0.40
2019-01-24T20:19:33.662Z,-0.40
2019-01-24T20:22:37.936Z,-0.50
2019-01-24T20:25:42.414Z,-0.50
2019-01-24T20:28:47.705Z,-0.40
2019-01-24T20:31:53.686Z,-0.30
2019-01-24T20:34:58.800Z,-0.40
2019-01-24T20:38:04.148Z,-0.50
2019-01-24T20:41:08.985Z,-0.50
2019-01-24T20:44:12.993Z,-0.40
2019-01-24T20:47:17.947Z,-0.40
2019-01-24T20:50:22.823Z,-0.30
2019-01-24T20:53:27.693Z,-0.30
2019-01-24T20:56:32.964Z,-0.40
2019-01-24T20:59:38.467Z,-0.30
2019-01-24T21:02:44.199Z,-0.30
2019-01-24T21:05:47.955Z,-0.30
2019-01-24T21:08:50.952Z,-0.30
2019-01-24T21:11:55.322Z,-0.30
2019-01-24T21:14:58.256Z,-0.40
2019-01-24T21:18:01.502Z,-0.50
2019-01-24T21:21:04.701Z,-0.40
2019-01-24T21:24:07.656Z,-0.50
2019-01-24T21:27:10.637Z,-0.30
2019-01-24T21:30:21.223Z,-0.30
2019-01-24T21:33:24.192Z,-0.20
2019-01-24T21:36:27.100Z,-0.20
2019-01-24T21:39:30.363Z,-0.20
2019-01-24T21:42:33.456Z,-0.40
2019-01-24T21:45:37.142Z,-0.30
2019-01-24T21:48:40.407Z,-0.30
2019-01-24T21:51:43.409Z,-0.20
2019-01-24T21:54:46.328Z,-0.30
2019-01-24T21:57:49.560Z,-0.30
2019-01-24T22:00:52.883Z,-0.30
2019-01-24T22:03:56.163Z,-0.20
2019-01-24T22:06:59.092Z,-0.30
2019-01-24T22:10:02.758Z,-0.20
2019-01-24T22:13:06.220Z,-0.30
2019-01-24T22:16:09.434Z,-0.30
2019-01-24T22:19:12.390Z,-0.40
2019-01-24T22:22:15.624Z,-0.40
2019-01-24T22:25:21.916Z,-0.40
2019-01-24T22:28:26.846Z,-0.50
2019-01-24T22:31:30.388Z,-0.40
2019-01-24T22:34:33.638Z,-0.40
2019-01-24T22:37:36.531Z,-0.40
2019-01-24T22:40:39.790Z,-0.40
2019-01-24T22:43:42.695Z,-0.50
2019-01-24T22:46:45.674Z,-0.40
2019-01-24T22:49:48.631Z,-0.50
2019-01-24T22:52:51.543Z,-0.60
2019-01-24T22:55:54.477Z,-0.50
2019-01-24T22:58:57.658Z,-0.60
2019-01-24T23:02:15.183Z,-0.60
2019-01-24T23:05:18.431Z,-0.60
2019-01-24T23:08:21.471Z,-0.60
2019-01-24T23:11:25.056Z,-0.70
2019-01-24T23:14:27.990Z,-0.70
2019-01-24T23:17:30.915Z,-0.60
2019-01-24T23:20:33.874Z,-0.60
2019-01-24T23:23:36.910Z,-0.60
2019-01-24T23:26:40.233Z,-0.50
2019-01-24T23:29:43.579Z,-0.60
2019-01-24T23:32:46.650Z,-0.50
2019-01-24T23:35:49.719Z,-0.50
2019-01-24T23:38:53.328Z,-0.40
2019-01-24T23:41:56.580Z,-0.40
2019-01-24T23:44:59.522Z,-0.50
2019-01-24T23:48:02.741Z,-0.40
2019-01-24T23:51:06.778Z,-0.40
2019-01-24T23:54:10.064Z,-0.40
2019-01-24T23:57:13.355Z,-0.40
